Time;durP1;ratioP1;P1;durP2;ratioP2;P2;SDS_P1;SDS_P2;PMS_P1;PMS_P2;Temp;Humidity;BMP_temperature;BMP_pressure;BME280_temperature;BME280_humidity;BME280_pressure;Samples;Min_cycle;Max_cycle;Signal;HPM_P1;HPM_P2
2023/07/15 00:01:27;;;;;;;2.95;1.00;;;17.70;99.90;;;;;;4995370;28;20234;-73
2023/07/15 00:03:59;;;;;;;1.00;0.80;;;17.70;99.90;;;;;;4993655;28;20257;-74
2023/07/15 00:06:30;;;;;;;2.15;0.77;;;17.70;99.90;;;;;;4993732;28;20207;-74
2023/07/15 00:09:02;;;;;;;1.98;0.88;;;17.80;99.90;;;;;;4995614;28;20195;-74
2023/07/15 00:11:34;;;;;;;1.90;0.90;;;17.80;99.90;;;;;;4995496;28;20234;-74
2023/07/15 00:14:08;;;;;;;2.28;0.80;;;17.90;99.90;;;;;;4995640;28;20192;-74
2023/07/15 00:16:41;;;;;;;1.60;0.80;;;17.90;99.90;;;;;;4994341;28;20755;-74
2023/07/15 00:19:12;;;;;;;1.90;0.80;;;18.00;99.90;;;;;;4993632;28;20196;-74
2023/07/15 00:21:43;;;;;;;2.05;0.93;;;18.10;99.90;;;;;;4992542;28;20221;-74
2023/07/15 00:24:14;;;;;;;1.45;0.90;;;18.10;99.90;;;;;;4991629;28;20206;-74
2023/07/15 00:26:47;;;;;;;2.05;0.95;;;18.20;99.90;;;;;;4991048;28;20569;-74
2023/07/15 00:29:19;;;;;;;2.45;0.88;;;18.30;99.90;;;;;;4990862;28;20609;-73
2023/07/15 00:31:52;;;;;;;3.45;0.90;;;18.30;99.90;;;;;;4988373;28;20222;-75
2023/07/15 00:34:23;;;;;;;2.97;0.93;;;18.40;99.90;;;;;;4986244;28;20195;-75
2023/07/15 00:36:54;;;;;;;1.25;0.82;;;18.50;99.90;;;;;;4992343;28;20203;-75
2023/07/15 00:39:25;;;;;;;2.92;0.90;;;18.60;99.90;;;;;;4992233;28;20697;-75
2023/07/15 00:41:59;;;;;;;3.05;0.90;;;18.70;99.90;;;;;;4993058;28;20203;-75
2023/07/15 00:44:28;;;;;;;2.08;0.90;;;18.70;99.90;;;;;;4992300;28;20199;-75
2023/07/15 00:47:23;;;;;;;2.47;0.73;;;18.80;99.90;;;;;;4992337;28;20218;-75
2023/07/15 00:49:54;;;;;;;2.50;0.77;;;18.90;99.90;;;;;;4987809;28;20727;-75
2023/07/15 00:52:26;;;;;;;0.85;0.77;;;18.90;99.90;;;;;;4994064;28;20223;-75
2023/07/15 00:54:58;;;;;;;1.27;0.85;;;19.00;99.90;;;;;;4990578;28;20201;-75
2023/07/15 00:57:30;;;;;;;1.63;0.70;;;19.00;99.90;;;;;;4990505;28;20195;-75
2023/07/15 01:00:04;;;;;;;1.77;1.05;;;19.10;99.90;;;;;;4992075;28;20204;-75
2023/07/15 01:02:38;;;;;;;1.38;0.88;;;19.20;99.90;;;;;;4989084;28;20231;-75
2023/07/15 01:05:10;;;;;;;2.30;0.88;;;19.30;99.90;;;;;;4993849;28;20199;-76
2023/07/15 01:07:41;;;;;;;1.23;0.80;;;19.50;99.90;;;;;;4993964;28;20303;-75
2023/07/15 01:10:13;;;;;;;1.88;0.80;;;19.60;99.90;;;;;;4992483;28;20208;-75
2023/07/15 01:12:44;;;;;;;1.10;0.80;;;19.70;99.90;;;;;;4988743;28;20202;-76
2023/07/15 01:15:15;;;;;;;1.13;0.80;;;19.80;99.90;;;;;;4993671;28;20209;-75
2023/07/15 01:17:48;;;;;;;2.58;0.60;;;19.90;99.90;;;;;;4992978;28;20206;-75
2023/07/15 01:20:22;;;;;;;2.05;1.17;;;20.00;99.90;;;;;;4992134;28;20196;-76
2023/07/15 01:22:55;;;;;;;2.08;0.90;;;20.10;99.90;;;;;;4992710;28;20290;-75
2023/07/15 01:25:26;;;;;;;2.00;0.93;;;20.20;99.90;;;;;;4992467;28;20199;-76
2023/07/15 01:27:57;;;;;;;1.85;0.70;;;20.20;99.90;;;;;;4992689;28;20200;-75
2023/07/15 01:30:29;;;;;;;2.47;0.70;;;20.30;99.90;;;;;;4994022;28;20671;-76
2023/07/15 01:33:00;;;;;;;2.20;0.80;;;20.40;99.90;;;;;;4992805;28;20560;-74
2023/07/15 01:35:31;;;;;;;1.40;0.70;;;20.50;99.90;;;;;;4991588;28;20199;-75
2023/07/15 01:38:05;;;;;;;4.55;0.80;;;20.60;99.90;;;;;;4990771;28;20211;-76
2023/07/15 01:40:36;;;;;;;0.90;0.70;;;20.70;99.90;;;;;;4992545;28;20199;-76
2023/07/15 01:43:07;;;;;;;1.20;0.63;;;20.80;99.90;;;;;;4989796;28;20220;-75
2023/07/15 01:45:39;;;;;;;2.53;0.70;;;20.90;99.90;;;;;;4992133;28;20200;-76
2023/07/15 01:48:10;;;;;;;1.50;0.73;;;21.00;99.90;;;;;;4993974;28;20242;-75
2023/07/15 01:50:41;;;;;;;1.15;0.73;;;21.10;99.90;;;;;;4994150;28;20600;-76
2023/07/15 01:53:14;;;;;;;1.20;0.82;;;21.20;99.90;;;;;;4991067;28;20192;-75
2023/07/15 01:55:46;;;;;;;3.17;0.80;;;21.30;99.90;;;;;;4988759;28;20199;-76
2023/07/15 01:58:17;;;;;;;1.58;0.70;;;21.40;99.90;;;;;;4991069;28;20258;-75
2023/07/15 02:00:48;;;;;;;3.67;1.40;;;21.50;99.90;;;;;;4992773;28;20254;-76
2023/07/15 02:03:19;;;;;;;1.00;0.75;;;21.60;99.90;;;;;;4992106;28;20204;-76
2023/07/15 02:05:51;;;;;;;1.90;0.77;;;21.60;99.90;;;;;;4985495;28;20196;-76
2023/07/15 02:08:24;;;;;;;2.65;0.82;;;21.70;99.90;;;;;;4981105;28;20569;-76
2023/07/15 02:10:55;;;;;;;1.02;0.80;;;21.80;99.90;;;;;;4995273;28;20196;-76
2023/07/15 02:13:26;;;;;;;2.53;0.60;;;21.90;99.90;;;;;;4994276;28;20191;-75
2023/07/15 02:15:57;;;;;;;1.60;0.50;;;22.00;99.90;;;;;;4994952;28;20246;-76
2023/07/15 02:18:28;;;;;;;2.22;0.68;;;22.10;99.90;;;;;;4996821;28;20202;-76
2023/07/15 02:20:59;;;;;;;1.33;0.60;;;22.10;99.90;;;;;;4996514;28;20199;-75
2023/07/15 02:23:33;;;;;;;3.00;0.93;;;22.10;99.90;;;;;;4992185;28;20202;-76
2023/07/15 02:26:04;;;;;;;1.70;0.70;;;22.10;99.90;;;;;;4984889;28;20200;-76
2023/07/15 02:28:35;;;;;;;2.15;0.82;;;22.20;99.90;;;;;;4983910;28;20196;-76
2023/07/15 02:31:06;;;;;;;2.45;0.60;;;22.20;99.90;;;;;;4992612;28;20266;-75
2023/07/15 02:33:37;;;;;;;3.10;0.60;;;22.30;99.90;;;;;;4995718;28;20204;-75
2023/07/15 02:36:09;;;;;;;2.60;0.82;;;22.40;99.90;;;;;;4996321;28;20279;-74
2023/07/15 02:38:42;;;;;;;1.30;0.65;;;22.40;99.90;;;;;;4995158;28;20209;-76
2023/07/15 02:41:13;;;;;;;1.15;0.57;;;22.40;99.90;;;;;;4997224;28;20191;-76
2023/07/15 02:43:45;;;;;;;3.08;0.73;;;22.50;99.90;;;;;;4993968;28;20192;-75
2023/07/15 02:46:16;;;;;;;1.02;0.60;;;22.50;99.90;;;;;;4995296;28;20644;-75
2023/07/15 02:48:47;;;;;;;0.88;0.75;;;22.60;99.90;;;;;;4997080;28;20202;-76
2023/07/15 02:51:19;;;;;;;3.63;1.05;;;22.70;99.90;;;;;;4997076;28;20264;-75
2023/07/15 02:53:53;;;;;;;2.70;0.90;;;22.70;99.90;;;;;;4997068;28;20708;-76
2023/07/15 02:56:24;;;;;;;5.68;1.88;;;22.90;99.90;;;;;;4995958;28;20203;-76
2023/07/15 02:58:55;;;;;;;2.25;1.08;;;22.90;99.90;;;;;;4992587;28;20279;-76
2023/07/15 03:01:27;;;;;;;2.25;1.00;;;23.00;99.90;;;;;;4996756;28;20247;-75
2023/07/15 03:03:58;;;;;;;3.95;0.80;;;22.90;99.90;;;;;;4996786;28;20569;-83
2023/07/15 03:06:30;;;;;;;5.30;0.80;;;23.10;99.90;;;;;;4995987;28;20206;-76
2023/07/15 03:09:05;;;;;;;1.70;0.60;;;23.20;99.90;;;;;;4996670;28;20191;-77
2023/07/15 03:11:37;;;;;;;4.00;0.93;;;23.30;99.90;;;;;;4994615;28;20219;-76
2023/07/15 03:14:08;;;;;;;4.68;0.70;;;23.30;99.90;;;;;;4997141;28;20746;-77
2023/07/15 03:16:39;;;;;;;3.95;0.50;;;23.30;99.90;;;;;;4997186;28;20254;-76
2023/07/15 03:19:10;;;;;;;2.42;0.57;;;23.30;99.90;;;;;;4996060;28;20203;-77
2023/07/15 03:21:41;;;;;;;1.20;0.68;;;23.40;99.90;;;;;;4995707;28;20199;-75
2023/07/15 03:24:14;;;;;;;0.88;0.50;;;23.40;99.90;;;;;;4996688;28;20524;-76
2023/07/15 03:26:45;;;;;;;1.25;0.60;;;23.30;99.90;;;;;;4994647;28;20195;-76
2023/07/15 03:29:16;;;;;;;2.53;0.60;;;23.40;99.90;;;;;;4996296;28;20253;-79
2023/07/15 03:31:47;;;;;;;2.55;0.98;;;23.40;99.90;;;;;;4996788;28;20234;-78
2023/07/15 03:34:19;;;;;;;4.03;1.10;;;23.50;99.90;;;;;;4996304;28;20221;-77
2023/07/15 03:36:50;;;;;;;2.65;0.60;;;23.50;99.90;;;;;;4994760;28;20196;-77
2023/07/15 03:39:23;;;;;;;1.45;0.60;;;23.50;99.90;;;;;;4996229;28;20192;-78
2023/07/15 03:41:54;;;;;;;1.67;0.60;;;23.50;99.90;;;;;;4996024;28;20203;-77
2023/07/15 03:44:25;;;;;;;3.00;0.47;;;23.50;99.90;;;;;;4995705;28;20203;-74
2023/07/15 03:46:57;;;;;;;2.97;0.80;;;23.60;99.90;;;;;;4996471;28;20246;-77
2023/07/15 03:49:28;;;;;;;6.53;0.82;;;23.60;99.90;;;;;;4995930;28;20306;-77
2023/07/15 03:51:59;;;;;;;1.73;0.60;;;23.50;99.90;;;;;;4994005;28;20220;-77
2023/07/15 03:54:32;;;;;;;1.10;0.55;;;23.50;99.90;;;;;;4994785;28;20250;-75
2023/07/15 03:57:04;;;;;;;1.40;0.60;;;23.60;99.90;;;;;;4995897;28;20199;-78
2023/07/15 03:59:35;;;;;;;3.17;0.50;;;23.60;99.90;;;;;;4993668;28;20282;-78
2023/07/15 04:02:07;;;;;;;1.05;0.60;;;23.60;99.90;;;;;;4995334;28;20302;-78
2023/07/15 04:04:39;;;;;;;1.35;0.70;;;23.60;99.90;;;;;;4995794;28;20199;-78
2023/07/15 04:07:11;;;;;;;2.22;0.60;;;23.60;99.90;;;;;;4996026;28;20640;-79
2023/07/15 04:09:44;;;;;;;1.08;0.63;;;23.70;99.90;;;;;;4995725;28;20191;-76
2023/07/15 04:12:15;;;;;;;1.15;0.80;;;23.70;99.90;;;;;;4994629;28;20234;-76
2023/07/15 04:14:46;;;;;;;1.33;0.50;;;23.70;99.90;;;;;;4995406;28;20198;-76
2023/07/15 04:17:17;;;;;;;0.73;0.60;;;23.60;99.90;;;;;;4994482;28;20196;-77
2023/07/15 04:19:48;;;;;;;0.93;0.52;;;23.60;99.90;;;;;;4994236;28;20195;-76
2023/07/15 04:22:19;;;;;;;2.30;0.80;;;23.50;99.90;;;;;;4995542;28;20615;-76
2023/07/15 04:24:52;;;;;;;2.85;0.73;;;23.50;99.90;;;;;;4994122;28;20204;-77
2023/07/15 04:27:23;;;;;;;0.95;0.60;;;23.50;99.90;;;;;;4994732;28;20200;-77
2023/07/15 04:29:54;;;;;;;1.42;0.60;;;23.50;99.90;;;;;;4995219;28;20191;-77
2023/07/15 04:32:26;;;;;;;0.98;0.60;;;23.50;99.90;;;;;;4994675;28;20235;-75
2023/07/15 04:34:57;;;;;;;1.75;0.50;;;23.40;99.90;;;;;;4992795;28;20659;-77
2023/07/15 04:37:28;;;;;;;0.60;0.50;;;23.40;99.90;;;;;;4992785;28;20648;-76
2023/07/15 04:40:03;;;;;;;0.95;0.50;;;23.40;99.90;;;;;;4994900;28;20207;-75
2023/07/15 04:42:34;;;;;;;0.60;0.60;;;23.40;99.90;;;;;;4995302;28;20564;-75
2023/07/15 04:45:06;;;;;;;2.95;0.60;;;23.50;99.90;;;;;;4993818;28;20199;-76
2023/07/15 04:47:39;;;;;;;1.02;0.60;;;23.50;99.90;;;;;;4994141;28;20223;-73
2023/07/15 04:50:10;;;;;;;1.77;0.60;;;23.40;99.90;;;;;;4992484;28;20231;-76
2023/07/15 04:52:41;;;;;;;3.08;0.70;;;23.40;99.90;;;;;;4994668;28;20234;-77
2023/07/15 04:55:15;;;;;;;1.10;0.60;;;23.40;99.90;;;;;;4994771;28;20274;-77
2023/07/15 04:57:46;;;;;;;1.73;0.70;;;23.30;99.90;;;;;;4994740;28;20698;-75
2023/07/15 05:00:20;;;;;;;1.20;0.68;;;23.30;99.90;;;;;;4994399;28;20406;-79
2023/07/15 05:02:51;;;;;;;1.77;0.60;;;23.30;99.90;;;;;;4994538;28;20202;-77
2023/07/15 05:05:22;;;;;;;0.80;0.60;;;23.20;99.90;;;;;;4991398;28;20253;-77
2023/07/15 05:07:54;;;;;;;0.90;0.70;;;23.20;99.90;;;;;;4994357;28;20199;-77
2023/07/15 05:10:28;;;;;;;1.20;0.60;;;23.30;99.90;;;;;;4992359;28;20191;-75
2023/07/15 05:12:59;;;;;;;2.30;0.70;;;23.20;99.90;;;;;;4993184;28;20222;-75
2023/07/15 05:15:31;;;;;;;1.50;0.57;;;23.20;99.90;;;;;;4995067;28;20636;-76
2023/07/15 05:18:02;;;;;;;1.13;0.60;;;23.10;99.90;;;;;;4993197;28;20604;-76
2023/07/15 05:20:33;;;;;;;1.48;0.50;;;23.00;99.90;;;;;;4990907;28;20205;-73
2023/07/15 05:23:05;;;;;;;1.52;0.60;;;22.90;99.90;;;;;;4994342;28;20261;-74
2023/07/15 05:25:38;;;;;;;1.20;0.60;;;22.90;99.90;;;;;;4994600;28;20192;-75
2023/07/15 05:28:09;;;;;;;2.50;0.73;;;22.90;99.90;;;;;;4995284;28;20195;-73
2023/07/15 05:30:40;;;;;;;0.95;0.70;;;22.90;99.90;;;;;;4990916;28;20208;-75
2023/07/15 05:33:11;;;;;;;2.05;0.60;;;23.00;99.90;;;;;;4974794;28;20718;-73
2023/07/15 05:35:42;;;;;;;1.10;0.63;;;22.90;99.90;;;;;;4986825;28;20218;-75
2023/07/15 05:38:14;;;;;;;1.40;0.70;;;22.90;99.90;;;;;;4993954;28;20196;-75
2023/07/15 05:40:47;;;;;;;1.65;0.70;;;22.80;99.90;;;;;;4993107;28;20199;-77
2023/07/15 05:43:18;;;;;;;0.90;0.60;;;22.80;99.90;;;;;;4992700;28;20311;-76
2023/07/15 05:45:49;;;;;;;2.30;0.85;;;22.70;99.90;;;;;;4994025;28;20249;-75
2023/07/15 05:48:20;;;;;;;1.13;0.70;;;22.70;99.90;;;;;;4991183;28;20199;-75
2023/07/15 05:50:51;;;;;;;0.90;0.65;;;22.80;99.90;;;;;;4988242;28;20722;-76
2023/07/15 05:53:22;;;;;;;1.20;0.70;;;22.80;99.90;;;;;;4989864;28;20227;-76
2023/07/15 05:55:56;;;;;;;1.50;0.70;;;22.80;99.90;;;;;;4992967;28;20200;-76
2023/07/15 05:58:27;;;;;;;3.03;0.93;;;22.70;99.90;;;;;;4992331;28;20226;-77
2023/07/15 06:00:58;;;;;;;3.00;1.02;;;22.60;99.90;;;;;;4992988;28;20231;-76
2023/07/15 06:03:29;;;;;;;0.93;0.70;;;22.60;99.90;;;;;;4985909;28;20230;-76
2023/07/15 06:06:05;;;;;;;1.55;0.85;;;22.60;99.90;;;;;;4992408;28;20234;-73
2023/07/15 06:08:36;;;;;;;1.45;1.00;;;22.60;99.90;;;;;;4990336;28;20199;-73
2023/07/15 06:11:09;;;;;;;2.88;1.17;;;22.60;99.90;;;;;;4992956;28;20207;-72
2023/07/15 06:13:40;;;;;;;5.18;1.75;;;22.50;99.90;;;;;;4992024;28;20219;-72
2023/07/15 06:16:11;;;;;;;13.38;2.97;;;22.50;99.90;;;;;;4989109;28;20212;-78
2023/07/15 06:18:42;;;;;;;3.45;1.30;;;22.30;99.90;;;;;;4991006;28;20202;-76
2023/07/15 06:21:13;;;;;;;1.67;1.27;;;22.20;99.90;;;;;;4993472;28;20202;-76
2023/07/15 06:23:44;;;;;;;3.70;1.30;;;22.20;99.90;;;;;;4993530;28;20203;-75
2023/07/15 06:26:17;;;;;;;1.48;1.00;;;22.10;99.90;;;;;;4988391;28;20204;-75
2023/07/15 06:28:49;;;;;;;1.48;1.17;;;22.10;99.90;;;;;;4978555;28;20575;-77
2023/07/15 06:31:20;;;;;;;2.22;1.15;;;22.20;99.90;;;;;;4990912;28;20208;-74
2023/07/15 06:33:51;;;;;;;3.58;1.08;;;22.10;99.90;;;;;;4994465;28;20233;-75
2023/07/15 06:36:22;;;;;;;1.88;1.10;;;22.10;99.90;;;;;;4993672;28;20562;-75
2023/07/15 06:38:53;;;;;;;2.70;1.30;;;22.00;99.90;;;;;;4990823;28;20199;-75
2023/07/15 06:41:26;;;;;;;1.35;0.90;;;21.90;99.90;;;;;;4991954;28;20203;-75
2023/07/15 06:43:57;;;;;;;1.90;1.00;;;21.80;99.90;;;;;;4993523;28;20648;-75
2023/07/15 06:46:29;;;;;;;1.38;0.90;;;21.80;99.90;;;;;;4993400;28;20200;-75
2023/07/15 06:49:00;;;;;;;2.00;1.00;;;21.70;99.90;;;;;;4992066;28;20223;-75
2023/07/15 06:51:31;;;;;;;4.13;1.70;;;21.60;99.90;;;;;;4991662;28;20203;-76
2023/07/15 06:54:02;;;;;;;2.97;0.88;;;21.60;99.90;;;;;;4993942;28;20683;-74
2023/07/15 06:56:35;;;;;;;1.38;1.02;;;21.50;99.90;;;;;;4996142;28;20682;-75
2023/07/15 06:59:06;;;;;;;2.78;1.00;;;21.40;99.90;;;;;;4994722;28;20206;-75
2023/07/15 07:01:37;;;;;;;2.25;1.00;;;21.40;99.90;;;;;;4996791;28;20322;-75
2023/07/15 07:04:09;;;;;;;1.95;0.90;;;21.30;99.90;;;;;;4995786;28;20204;-73
2023/07/15 07:06:40;;;;;;;2.00;1.30;;;21.20;99.90;;;;;;4996831;28;20208;-76
2023/07/15 07:09:11;;;;;;;1.90;0.90;;;21.10;99.90;;;;;;4995910;28;20575;-75
2023/07/15 07:11:44;;;;;;;0.90;0.80;;;21.00;99.90;;;;;;4995053;28;20199;-75
2023/07/15 07:14:15;;;;;;;1.63;0.80;;;21.00;99.90;;;;;;4986000;28;20216;-75
2023/07/15 07:16:46;;;;;;;1.58;1.00;;;20.90;99.90;;;;;;4989890;28;20196;-75
2023/07/15 07:19:17;;;;;;;2.97;1.00;;;20.80;99.90;;;;;;4993411;28;20207;-75
2023/07/15 07:21:48;;;;;;;2.85;1.10;;;20.70;99.90;;;;;;4977969;28;20203;-75
2023/07/15 07:24:19;;;;;;;2.03;1.00;;;20.60;99.90;;;;;;4987440;28;20203;-75
2023/07/15 07:26:52;;;;;;;2.42;1.10;;;20.50;99.90;;;;;;4988443;28;20208;-75
2023/07/15 07:29:24;;;;;;;2.25;1.17;;;20.50;99.90;;;;;;4992240;28;20199;-74
2023/07/15 07:31:56;;;;;;;2.60;1.10;;;20.40;99.90;;;;;;5003734;28;20191;-74
2023/07/15 07:34:27;;;;;;;2.80;1.33;;;20.30;99.90;;;;;;4988237;28;20212;-75
2023/07/15 07:36:58;;;;;;;2.70;1.40;;;20.20;99.90;;;;;;4993640;28;20204;-76
2023/07/15 07:39:30;;;;;;;2.30;1.20;;;20.10;99.90;;;;;;4996348;28;20198;-76
2023/07/15 07:42:03;;;;;;;1.88;1.25;;;20.10;99.90;;;;;;4996541;28;20529;-75
2023/07/15 07:44:34;;;;;;;4.53;1.58;;;20.00;99.90;;;;;;4995391;28;20565;-76
2023/07/15 07:47:05;;;;;;;3.58;1.27;;;19.90;99.90;;;;;;4992796;28;20199;-74
2023/07/15 07:49:36;;;;;;;3.15;1.30;;;19.70;99.90;;;;;;4991457;28;20230;-75
2023/07/15 07:52:08;;;;;;;2.15;1.20;;;19.60;99.90;;;;;;4994404;28;20200;-76
2023/07/15 07:54:39;;;;;;;2.28;1.35;;;19.50;99.90;;;;;;4996133;28;20220;-76
2023/07/15 07:57:14;;;;;;;2.10;1.27;;;19.40;99.90;;;;;;4996001;28;20686;-73
2023/07/15 07:59:45;;;;;;;1.73;1.20;;;19.30;99.90;;;;;;4995671;28;20560;-76
2023/07/15 08:02:16;;;;;;;1.55;1.30;;;19.20;99.90;;;;;;4994532;28;20231;-76
2023/07/15 08:04:48;;;;;;;2.95;1.30;;;19.10;99.90;;;;;;4994749;28;20207;-75
2023/07/15 08:07:19;;;;;;;1.88;1.50;;;19.00;99.90;;;;;;4985236;28;20207;-75
2023/07/15 08:09:50;;;;;;;4.38;1.70;;;18.90;99.90;;;;;;4982849;28;20615;-75
2023/07/15 08:12:23;;;;;;;3.90;1.40;;;18.80;99.90;;;;;;4991048;28;20202;-75
2023/07/15 08:14:54;;;;;;;5.05;1.83;;;18.80;99.90;;;;;;4994146;28;20215;-74
2023/07/15 08:17:26;;;;;;;3.70;1.80;;;18.70;99.90;;;;;;4994144;28;20192;-75
2023/07/15 08:19:57;;;;;;;3.97;2.20;;;18.70;99.90;;;;;;4985422;28;20211;-76
2023/07/15 08:22:28;;;;;;;3.50;1.85;;;18.70;99.90;;;;;;4992076;28;20592;-76
2023/07/15 08:24:59;;;;;;;3.00;1.90;;;18.60;99.90;;;;;;4991560;28;20195;-74
2023/07/15 08:27:32;;;;;;;2.80;1.60;;;18.60;99.90;;;;;;4992062;28;20207;-73
2023/07/15 08:30:03;;;;;;;3.40;1.83;;;18.60;99.90;;;;;;4994215;28;20674;-75
2023/07/15 08:32:34;;;;;;;3.20;1.88;;;18.60;99.90;;;;;;4993312;28;20203;-76
2023/07/15 08:35:07;;;;;;;2.97;1.77;;;18.50;99.90;;;;;;4995357;28;20227;-75
2023/07/15 08:37:38;;;;;;;3.70;2.05;;;18.50;99.90;;;;;;4994867;28;20199;-76
2023/07/15 08:40:13;;;;;;;4.65;1.80;;;18.50;99.90;;;;;;4995021;28;20210;-75
2023/07/15 08:42:46;;;;;;;3.15;1.80;;;18.50;99.90;;;;;;4993567;28;20207;-76
2023/07/15 08:45:17;;;;;;;3.40;2.00;;;18.50;99.90;;;;;;4991479;28;20652;-74
2023/07/15 08:47:48;;;;;;;4.07;1.98;;;18.50;99.90;;;;;;4994659;28;20206;-75
2023/07/15 08:50:20;;;;;;;6.68;1.83;;;18.50;99.90;;;;;;4991183;28;20230;-75
2023/07/15 08:52:51;;;;;;;3.20;2.00;;;18.60;99.90;;;;;;4993855;28;20680;-74
2023/07/15 08:55:23;;;;;;;3.92;2.30;;;18.50;99.90;;;;;;4994274;28;20211;-74
2023/07/15 08:57:57;;;;;;;3.28;2.08;;;18.40;99.90;;;;;;4994434;28;20562;-73
2023/07/15 09:00:28;;;;;;;2.85;2.22;;;18.30;99.90;;;;;;4994197;28;20687;-75
2023/07/15 09:03:00;;;;;;;5.20;2.40;;;18.30;99.90;;;;;;4993532;28;20204;-75
2023/07/15 09:05:32;;;;;;;3.70;2.38;;;18.20;99.90;;;;;;4990929;28;20290;-74
2023/07/15 09:08:10;;;;;;;5.43;2.28;;;18.10;99.90;;;;;;4991540;28;20200;-74
2023/07/15 09:10:54;;;;;;;3.45;2.08;;;18.00;99.90;;;;;;4991215;28;20191;-76
2023/07/15 09:13:32;;;;;;;4.50;2.35;;;17.90;99.90;;;;;;4984317;28;20687;-77
2023/07/15 09:16:03;;;;;;;3.97;2.78;;;17.90;99.90;;;;;;4991224;28;20609;-76
2023/07/15 09:18:40;;;;;;;6.50;2.88;;;17.80;99.90;;;;;;4993442;28;20203;-77
2023/07/15 09:21:12;;;;;;;5.40;3.00;;;17.70;99.90;;;;;;4991604;28;20231;-74
2023/07/15 09:23:44;;;;;;;3.95;2.85;;;17.70;99.90;;;;;;4991609;28;20206;-73
2023/07/15 09:26:18;;;;;;;5.63;2.88;;;17.60;99.90;;;;;;4992946;28;20207;-73
2023/07/15 09:28:51;;;;;;;4.07;2.60;;;17.60;99.90;;;;;;4993183;28;20204;-74
2023/07/15 09:31:31;;;;;;;4.65;3.00;;;17.50;99.90;;;;;;4986114;28;20207;-74
2023/07/15 09:34:06;;;;;;;4.18;2.20;;;17.50;99.90;;;;;;4991202;28;20226;-74
2023/07/15 09:36:37;;;;;;;4.00;2.80;;;17.40;99.90;;;;;;4992472;28;20199;-73
2023/07/15 09:39:15;;;;;;;4.18;2.42;;;17.30;99.90;;;;;;4991601;28;20666;-76
2023/07/15 09:41:47;;;;;;;5.00;2.60;;;17.30;99.90;;;;;;4990194;28;20203;-76
2023/07/15 09:44:34;;;;;;;3.60;2.70;;;17.20;99.90;;;;;;4985020;28;20200;-75
2023/07/15 09:47:06;;;;;;;5.93;3.17;;;17.10;99.90;;;;;;4991032;28;20207;-74
2023/07/15 09:49:38;;;;;;;4.45;2.67;;;17.10;99.90;;;;;;4985937;28;20220;-76
2023/07/15 09:52:10;;;;;;;3.42;2.40;;;17.00;99.90;;;;;;4988624;28;20250;-73
2023/07/15 09:54:45;;;;;;;3.63;2.70;;;16.90;99.90;;;;;;4993106;28;20227;-74
2023/07/15 09:57:19;;;;;;;5.05;2.65;;;16.90;99.90;;;;;;4993515;28;20199;-73
2023/07/15 09:59:56;;;;;;;5.50;3.13;;;16.90;99.90;;;;;;4993569;28;20196;-73
2023/07/15 10:02:38;;;;;;;5.95;3.60;;;16.90;99.90;;;;;;4993757;28;20230;-74
2023/07/15 10:05:13;;;;;;;5.25;2.90;;;16.80;99.90;;;;;;4989505;28;20196;-75
2023/07/15 10:07:44;;;;;;;3.80;2.63;;;16.80;99.90;;;;;;4988765;28;20286;-76
2023/07/15 10:10:15;;;;;;;4.85;3.38;;;16.70;99.90;;;;;;4992129;28;20242;-75
2023/07/15 10:12:47;;;;;;;4.35;3.00;;;16.80;99.90;;;;;;4991656;28;20199;-76
2023/07/15 10:15:20;;;;;;;5.65;3.10;;;16.80;99.90;;;;;;4988203;28;20578;-76
2023/07/15 10:17:52;;;;;;;5.35;2.88;;;16.70;99.90;;;;;;4989531;28;20204;-74
2023/07/15 10:20:25;;;;;;;5.20;3.05;;;16.80;99.90;;;;;;4993016;28;20211;-75
2023/07/15 10:23:01;;;;;;;4.60;2.92;;;16.80;99.90;;;;;;4980303;28;20192;-74
2023/07/15 10:25:32;;;;;;;4.82;3.15;;;16.90;99.90;;;;;;4993456;28;20203;-76
2023/07/15 10:28:14;;;;;;;4.93;3.08;;;17.00;99.90;;;;;;4990571;28;20660;-76
2023/07/15 10:31:09;;;;;;;4.68;3.00;;;17.00;99.90;;;;;;4995360;28;20278;-77
2023/07/15 10:33:55;;;;;;;4.80;2.70;;;17.10;99.90;;;;;;4997267;28;20215;-77
2023/07/15 10:36:44;;;;;;;4.70;2.72;;;17.10;99.90;;;;;;4996304;28;20208;-75
2023/07/15 10:39:19;;;;;;;4.00;2.50;;;17.10;99.90;;;;;;4992701;28;20222;-76
2023/07/15 10:41:51;;;;;;;3.72;2.40;;;17.10;99.90;;;;;;4992167;28;20198;-75
2023/07/15 10:44:23;;;;;;;4.03;2.20;;;17.10;99.90;;;;;;4996400;28;20207;-75
2023/07/15 10:47:06;;;;;;;3.92;2.22;;;17.20;99.90;;;;;;4996986;28;20723;-76
2023/07/15 10:49:37;;;;;;;5.35;2.30;;;17.20;99.90;;;;;;4990478;28;20228;-76
2023/07/15 10:52:09;;;;;;;3.20;2.10;;;17.30;99.90;;;;;;4993497;28;20258;-74
2023/07/15 10:54:41;;;;;;;5.22;2.13;;;17.30;99.90;;;;;;4990020;28;20226;-75
2023/07/15 10:57:14;;;;;;;5.32;2.20;;;17.40;99.90;;;;;;4995428;28;20212;-74
2023/07/15 10:59:46;;;;;;;3.83;2.20;;;17.40;99.90;;;;;;4993063;28;20658;-75
2023/07/15 11:02:19;;;;;;;3.60;1.85;;;17.50;99.90;;;;;;4996121;28;20726;-74
2023/07/15 11:04:50;;;;;;;4.07;2.20;;;17.50;99.90;;;;;;4996603;28;20617;-74
2023/07/15 11:07:22;;;;;;;3.58;2.20;;;17.50;99.90;;;;;;4993901;28;20278;-74
2023/07/15 11:09:53;;;;;;;3.70;2.17;;;17.60;99.90;;;;;;4996504;28;20203;-74
2023/07/15 11:12:24;;;;;;;4.03;2.20;;;17.60;99.90;;;;;;4994138;28;20219;-72
2023/07/15 11:14:55;;;;;;;2.97;2.00;;;17.60;99.90;;;;;;4996386;28;20587;-72
2023/07/15 11:17:28;;;;;;;3.63;1.92;;;17.60;99.90;;;;;;4987150;28;20204;-73
2023/07/15 11:19:59;;;;;;;2.78;2.00;;;17.70;99.90;;;;;;4986456;28;20561;-73
2023/07/15 11:22:31;;;;;;;3.45;2.22;;;17.70;99.90;;;;;;4993879;28;20203;-74
2023/07/15 11:25:02;;;;;;;4.30;2.42;;;17.70;99.90;;;;;;4995149;28;20200;-74
2023/07/15 11:27:33;;;;;;;3.13;2.42;;;17.80;99.90;;;;;;4994777;28;20640;-74
2023/07/15 11:30:04;;;;;;;5.38;3.03;;;17.80;99.90;;;;;;4992945;28;20209;-73
2023/07/15 11:32:37;;;;;;;3.72;2.50;;;17.80;99.90;;;;;;4992493;28;20203;-73
2023/07/15 11:35:15;;;;;;;5.18;2.78;;;17.80;99.90;;;;;;4992385;28;20235;-73
2023/07/15 11:37:47;;;;;;;4.47;2.95;;;17.80;99.90;;;;;;4989188;28;20254;-72
2023/07/15 11:40:21;;;;;;;4.50;2.90;;;17.70;99.90;;;;;;4988863;28;20197;-73
2023/07/15 11:42:53;;;;;;;3.45;2.58;;;17.70;99.90;;;;;;4994111;28;20218;-72
2023/07/15 11:45:26;;;;;;;4.47;2.70;;;17.70;99.90;;;;;;4983700;28;20208;-75
2023/07/15 11:47:59;;;;;;;5.10;3.20;;;17.50;99.90;;;;;;4994527;28;20204;-75
2023/07/15 11:50:31;;;;;;;5.28;3.28;;;17.40;99.90;;;;;;4995820;28;20219;-74
2023/07/15 11:53:02;;;;;;;5.57;3.05;;;17.30;99.90;;;;;;4992314;28;20192;-76
2023/07/15 11:55:34;;;;;;;3.70;2.72;;;17.30;99.90;;;;;;4990952;28;20224;-75
2023/07/15 11:58:05;;;;;;;6.82;3.60;;;17.20;99.90;;;;;;4987664;28;20210;-75
2023/07/15 12:00:37;;;;;;;5.10;3.08;;;17.10;99.90;;;;;;4995195;28;20235;-75
2023/07/15 12:03:13;;;;;;;4.55;2.80;;;17.00;99.90;;;;;;4993135;28;20545;-74
2023/07/15 12:05:44;;;;;;;4.63;3.05;;;17.00;99.90;;;;;;4995441;28;20655;-76
2023/07/15 12:08:16;;;;;;;5.10;2.90;;;16.90;99.90;;;;;;4995158;28;20188;-75
2023/07/15 12:10:54;;;;;;;4.70;2.85;;;16.90;99.90;;;;;;4994826;28;20187;-74
2023/07/15 12:13:26;;;;;;;4.35;3.00;;;16.90;99.90;;;;;;4994704;28;20283;-74
2023/07/15 12:15:57;;;;;;;5.80;2.60;;;16.90;99.90;;;;;;4995688;28;20322;-75
2023/07/15 12:18:30;;;;;;;5.65;2.65;;;16.80;99.90;;;;;;4995700;28;20187;-75
2023/07/15 12:21:01;;;;;;;4.88;2.50;;;16.80;99.90;;;;;;4995562;28;20192;-75
2023/07/15 12:23:32;;;;;;;2.97;2.20;;;16.90;99.90;;;;;;4995239;28;20203;-75
2023/07/15 12:26:03;;;;;;;2.47;1.80;;;16.90;99.90;;;;;;4995448;28;20206;-75
2023/07/15 12:28:34;;;;;;;3.33;1.90;;;16.90;99.90;;;;;;4993792;28;20211;-75
2023/07/15 12:31:05;;;;;;;3.17;1.95;;;16.90;99.90;;;;;;4994226;28;20573;-76
2023/07/15 12:33:38;;;;;;;2.53;1.85;;;16.90;99.90;;;;;;4994844;28;20655;-75
2023/07/15 12:36:10;;;;;;;2.40;1.50;;;16.90;99.90;;;;;;4995211;28;20583;-76
2023/07/15 12:38:42;;;;;;;3.05;1.80;;;16.90;99.90;;;;;;4994879;28;20199;-76
2023/07/15 12:41:14;;;;;;;2.20;1.55;;;16.90;99.90;;;;;;4983643;28;20209;-75
2023/07/15 12:43:45;;;;;;;2.13;1.40;;;16.90;99.90;;;;;;4995172;28;20188;-75
2023/07/15 12:46:16;;;;;;;3.35;1.90;;;17.00;99.90;;;;;;4995117;28;20195;-75
2023/07/15 12:48:51;;;;;;;1.98;1.20;;;17.10;99.90;;;;;;4994942;28;20227;-74
2023/07/15 12:51:22;;;;;;;2.53;1.50;;;17.10;99.90;;;;;;4994332;28;20281;-74
2023/07/15 12:53:53;;;;;;;2.75;1.30;;;17.10;99.90;;;;;;4981274;28;20200;-74
2023/07/15 12:56:24;;;;;;;3.22;1.67;;;17.10;99.90;;;;;;4989554;28;20250;-75
2023/07/15 12:58:55;;;;;;;2.17;1.58;;;17.10;99.90;;;;;;4993440;28;20674;-74
2023/07/15 13:01:26;;;;;;;2.00;1.70;;;17.00;99.90;;;;;;4992434;28;20237;-75
2023/07/15 13:03:59;;;;;;;2.55;1.38;;;17.00;99.90;;;;;;4994686;28;20203;-74
2023/07/15 13:06:30;;;;;;;4.38;1.60;;;17.00;99.90;;;;;;4993604;28;21375;-75
2023/07/15 13:09:01;;;;;;;2.47;1.60;;;16.90;99.90;;;;;;4993823;28;20195;-74
2023/07/15 13:11:32;;;;;;;1.77;1.50;;;16.80;99.90;;;;;;4989897;28;20199;-74
2023/07/15 13:14:04;;;;;;;3.22;1.60;;;16.80;99.90;;;;;;4991635;28;20679;-74